Terminal Aerodrome Forecast
Issued by NWS Mt. Holly, NJ

Home | Current Version | Previous Version | Text Only | Print | Product List | Glossary On
Versions: 1 2 3 4 5 6 7 8 9 10 11 12 13 14 15 16 17 18 19 20 21 22
000
FTAK31 PANC 241404 AAA
TAFABE
TAF AMD
PABE 241404Z 2414/2512 28011KT 2SM -RA BR OVC005
      TEMPO 2414/2416 6SM -RA
     FM241600 31007KT 6SM -SHRA SCT004 OVC007
     FM242100 34011KT P6SM -SHRA SCT007 BKN025
     FM250300 35012KT P6SM SCT025 BKN040=

USA.gov is the U.S. government's official web portal to all federal, state and local government web resources and services.